sensor_id;sensor_type;location;lat;lon;timestamp;pressure;altitude;pressure_sealevel;temperature;humidity
73453;BME280;61687;56.232;43.854;2022-11-11T00:02:21;101119.81;;;8.32;79.50
73453;BME280;61687;56.232;43.854;2022-11-11T00:05:06;101112.88;;;8.35;79.51
73453;BME280;61687;56.232;43.854;2022-11-11T00:07:56;101111.44;;;8.37;79.54
73453;BME280;61687;56.232;43.854;2022-11-11T00:10:43;101099.69;;;8.37;79.53
73453;BME280;61687;56.232;43.854;2022-11-11T00:13:30;101111.63;;;8.32;79.68
73453;BME280;61687;56.232;43.854;2022-11-11T00:16:17;101111.75;;;8.36;79.65
73453;BME280;61687;56.232;43.854;2022-11-11T00:19:02;101119.31;;;8.39;79.66
73453;BME280;61687;56.232;43.854;2022-11-11T00:22:17;101113.34;;;8.37;79.63
73453;BME280;61687;56.232;43.854;2022-11-11T00:25:21;101111.44;;;8.37;79.59
73453;BME280;61687;56.232;43.854;2022-11-11T00:28:06;101112.41;;;8.33;79.65
73453;BME280;61687;56.232;43.854;2022-11-11T00:30:50;101112.31;;;8.29;79.84
73453;BME280;61687;56.232;43.854;2022-11-11T00:33:35;101104.56;;;8.31;79.83
73453;BME280;61687;56.232;43.854;2022-11-11T00:36:19;101108.91;;;8.32;79.80
73453;BME280;61687;56.232;43.854;2022-11-11T00:39:04;101101.97;;;8.35;79.69
73453;BME280;61687;56.232;43.854;2022-11-11T00:41:49;101103.75;;;8.30;79.75
73453;BME280;61687;56.232;43.854;2022-11-11T00:44:33;101114.38;;;8.32;79.54
73453;BME280;61687;56.232;43.854;2022-11-11T00:47:18;101105.56;;;8.26;79.75
73453;BME280;61687;56.232;43.854;2022-11-11T00:50:26;101107.69;;;8.21;79.88
73453;BME280;61687;56.232;43.854;2022-11-11T00:53:30;101108.97;;;8.23;79.79
73453;BME280;61687;56.232;43.854;2022-11-11T00:56:19;101109.63;;;8.20;79.92
73453;BME280;61687;56.232;43.854;2022-11-11T00:59:07;101117.28;;;8.27;79.79
73453;BME280;61687;56.232;43.854;2022-11-11T01:01:51;101107.47;;;8.26;79.64
73453;BME280;61687;56.232;43.854;2022-11-11T01:04:36;101113.50;;;8.19;79.77
73453;BME280;61687;56.232;43.854;2022-11-11T01:07:21;101110.56;;;8.24;79.71
73453;BME280;61687;56.232;43.854;2022-11-11T01:10:05;101107.00;;;8.24;79.72
73453;BME280;61687;56.232;43.854;2022-11-11T01:12:53;101105.56;;;8.26;79.64
73453;BME280;61687;56.232;43.854;2022-11-11T01:16:01;101108.56;;;8.34;79.49
73453;BME280;61687;56.232;43.854;2022-11-11T01:18:46;101099.84;;;8.40;79.11
73453;BME280;61687;56.232;43.854;2022-11-11T01:21:31;101099.50;;;8.42;79.05
73453;BME280;61687;56.232;43.854;2022-11-11T01:24:15;101090.03;;;8.39;78.99
73453;BME280;61687;56.232;43.854;2022-11-11T01:27:00;101090.38;;;8.38;79.05
73453;BME280;61687;56.232;43.854;2022-11-11T01:29:45;101089.25;;;8.39;79.27
73453;BME280;61687;56.232;43.854;2022-11-11T01:32:29;101093.91;;;8.38;79.00
73453;BME280;61687;56.232;43.854;2022-11-11T01:35:14;101099.06;;;8.40;79.17
73453;BME280;61687;56.232;43.854;2022-11-11T01:37:58;101096.03;;;8.33;79.52
73453;BME280;61687;56.232;43.854;2022-11-11T01:40:45;101098.91;;;8.36;79.48
73453;BME280;61687;56.232;43.854;2022-11-11T01:43:30;101091.69;;;8.31;79.73
73453;BME280;61687;56.232;43.854;2022-11-11T01:46:36;101095.44;;;8.27;80.07
73453;BME280;61687;56.232;43.854;2022-11-11T01:49:32;101095.31;;;8.23;80.58
73453;BME280;61687;56.232;43.854;2022-11-11T01:52:31;101091.34;;;8.12;80.89
73453;BME280;61687;56.232;43.854;2022-11-11T01:55:20;101092.22;;;8.04;81.25
73453;BME280;61687;56.232;43.854;2022-11-11T01:58:08;101089.50;;;8.04;81.27
73453;BME280;61687;56.232;43.854;2022-11-11T02:00:57;101090.16;;;8.00;81.50
73453;BME280;61687;56.232;43.854;2022-11-11T02:03:43;101091.28;;;7.99;81.53
73453;BME280;61687;56.232;43.854;2022-11-11T02:06:52;101085.47;;;8.01;81.70
73453;BME280;61687;56.232;43.854;2022-11-11T02:09:39;101087.44;;;8.00;81.60
73453;BME280;61687;56.232;43.854;2022-11-11T02:12:25;101082.28;;;7.99;81.80
73453;BME280;61687;56.232;43.854;2022-11-11T02:15:48;101077.97;;;7.98;81.89
73453;BME280;61687;56.232;43.854;2022-11-11T02:18:33;101084.06;;;7.95;82.02
73453;BME280;61687;56.232;43.854;2022-11-11T02:21:36;101084.59;;;7.88;82.21
73453;BME280;61687;56.232;43.854;2022-11-11T02:24:26;101084.59;;;7.88;82.04
73453;BME280;61687;56.232;43.854;2022-11-11T02:27:13;101082.47;;;7.94;81.91
73453;BME280;61687;56.232;43.854;2022-11-11T02:30:00;101086.19;;;7.89;81.79
73453;BME280;61687;56.232;43.854;2022-11-11T02:32:47;101084.78;;;7.83;81.93
73453;BME280;61687;56.232;43.854;2022-11-11T02:35:34;101083.50;;;7.80;82.08
73453;BME280;61687;56.232;43.854;2022-11-11T02:38:19;101089.31;;;7.79;81.96
73453;BME280;61687;56.232;43.854;2022-11-11T02:41:04;101085.16;;;7.72;82.07
73453;BME280;61687;56.232;43.854;2022-11-11T02:44:07;101093.69;;;7.71;82.23
73453;BME280;61687;56.232;43.854;2022-11-11T02:46:52;101089.03;;;7.63;82.45
73453;BME280;61687;56.232;43.854;2022-11-11T02:49:36;101094.19;;;7.64;82.57
73453;BME280;61687;56.232;43.854;2022-11-11T02:52:21;101095.16;;;7.59;82.49
73453;BME280;61687;56.232;43.854;2022-11-11T02:55:06;101095.16;;;7.59;82.70
73453;BME280;61687;56.232;43.854;2022-11-11T02:57:51;101086.19;;;7.59;82.82
73453;BME280;61687;56.232;43.854;2022-11-11T03:00:35;101088.44;;;7.57;82.87
73453;BME280;61687;56.232;43.854;2022-11-11T03:03:20;101091.03;;;7.53;83.17
73453;BME280;61687;56.232;43.854;2022-11-11T03:06:04;101085.88;;;7.52;83.45
73453;BME280;61687;56.232;43.854;2022-11-11T03:08:49;101079.78;;;7.55;83.19
73453;BME280;61687;56.232;43.854;2022-11-11T03:11:33;101085.84;;;7.61;83.03
73453;BME280;61687;56.232;43.854;2022-11-11T03:14:21;101082.81;;;7.62;82.72
73453;BME280;61687;56.232;43.854;2022-11-11T03:17:05;101081.19;;;7.61;82.78
73453;BME280;61687;56.232;43.854;2022-11-11T03:23:16;101090.78;;;7.67;82.15
73453;BME280;61687;56.232;43.854;2022-11-11T03:26:01;101086.47;;;7.66;82.22
73453;BME280;61687;56.232;43.854;2022-11-11T03:28:45;101091.25;;;7.69;81.82
73453;BME280;61687;56.232;43.854;2022-11-11T03:31:30;101086.75;;;7.73;81.78
73453;BME280;61687;56.232;43.854;2022-11-11T03:34:15;101090.94;;;7.71;81.49
73453;BME280;61687;56.232;43.854;2022-11-11T03:37:03;101090.59;;;7.72;81.33
73453;BME280;61687;56.232;43.854;2022-11-11T03:40:07;101094.00;;;7.69;81.11
73453;BME280;61687;56.232;43.854;2022-11-11T03:42:52;101085.81;;;7.69;81.00
73453;BME280;61687;56.232;43.854;2022-11-11T03:45:36;101090.28;;;7.74;80.86
73453;BME280;61687;56.232;43.854;2022-11-11T03:48:21;101091.69;;;7.80;80.60
73453;BME280;61687;56.232;43.854;2022-11-11T03:51:05;101088.03;;;7.76;80.22
73453;BME280;61687;56.232;43.854;2022-11-11T03:53:50;101078.56;;;7.73;80.21
73453;BME280;61687;56.232;43.854;2022-11-11T03:56:34;101083.22;;;7.73;79.98
73453;BME280;61687;56.232;43.854;2022-11-11T03:59:19;101089.81;;;7.72;79.77
73453;BME280;61687;56.232;43.854;2022-11-11T04:02:03;101090.00;;;7.67;79.77
73453;BME280;61687;56.232;43.854;2022-11-11T04:05:06;101095.13;;;7.68;79.63
73453;BME280;61687;56.232;43.854;2022-11-11T04:08:18;101090.78;;;7.67;79.59
73453;BME280;61687;56.232;43.854;2022-11-11T04:11:25;101094.47;;;7.71;79.39
73453;BME280;61687;56.232;43.854;2022-11-11T04:14:11;101088.88;;;7.68;79.29
73453;BME280;61687;56.232;43.854;2022-11-11T04:17:15;101090.66;;;7.64;79.63
73453;BME280;61687;56.232;43.854;2022-11-11T04:19:59;101094.34;;;7.68;79.39
73453;BME280;61687;56.232;43.854;2022-11-11T04:23:03;101091.16;;;7.66;79.16
73453;BME280;61687;56.232;43.854;2022-11-11T04:25:47;101089.69;;;7.59;79.38
73453;BME280;61687;56.232;43.854;2022-11-11T04:28:32;101095.97;;;7.60;79.45
73453;BME280;61687;56.232;43.854;2022-11-11T04:31:35;101093.38;;;7.64;79.54
73453;BME280;61687;56.232;43.854;2022-11-11T04:34:19;101102.19;;;7.69;79.29
73453;BME280;61687;56.232;43.854;2022-11-11T04:37:03;101107.31;;;7.71;79.12
73453;BME280;61687;56.232;43.854;2022-11-11T04:39:48;101107.81;;;7.64;79.31
73453;BME280;61687;56.232;43.854;2022-11-11T04:42:52;101110.28;;;7.57;79.53
73453;BME280;61687;56.232;43.854;2022-11-11T04:45:37;101108.50;;;7.52;79.51
73453;BME280;61687;56.232;43.854;2022-11-11T04:48:22;101110.31;;;7.48;79.54
73453;BME280;61687;56.232;43.854;2022-11-11T04:51:06;101101.00;;;7.49;79.38
73453;BME280;61687;56.232;43.854;2022-11-11T04:53:50;101111.09;;;7.49;79.51
73453;BME280;61687;56.232;43.854;2022-11-11T04:56:35;101105.63;;;7.49;79.47
73453;BME280;61687;56.232;43.854;2022-11-11T04:59:32;101118.94;;;7.50;79.34
73453;BME280;61687;56.232;43.854;2022-11-11T05:02:17;101115.88;;;7.52;79.42
73453;BME280;61687;56.232;43.854;2022-11-11T05:05:21;101120.41;;;7.48;79.36
73453;BME280;61687;56.232;43.854;2022-11-11T05:08:06;101125.66;;;7.53;79.20
73453;BME280;61687;56.232;43.854;2022-11-11T05:11:10;101118.44;;;7.57;79.11
73453;BME280;61687;56.232;43.854;2022-11-11T05:13:56;101115.84;;;7.61;79.19
73453;BME280;61687;56.232;43.854;2022-11-11T05:17:00;101111.84;;;7.67;78.75
73453;BME280;61687;56.232;43.854;2022-11-11T05:20:03;101114.88;;;7.65;78.51
73453;BME280;61687;56.232;43.854;2022-11-11T05:23:10;101117.13;;;7.63;78.74
73453;BME280;61687;56.232;43.854;2022-11-11T05:25:54;101123.25;;;7.60;78.71
73453;BME280;61687;56.232;43.854;2022-11-11T05:28:39;101121.19;;;7.57;78.73
73453;BME280;61687;56.232;43.854;2022-11-11T05:31:23;101122.94;;;7.53;78.78
73453;BME280;61687;56.232;43.854;2022-11-11T05:34:07;101126.31;;;7.50;79.08
73453;BME280;61687;56.232;43.854;2022-11-11T05:36:52;101110.78;;;7.50;79.28
73453;BME280;61687;56.232;43.854;2022-11-11T05:39:36;101117.63;;;7.56;79.29
73453;BME280;61687;56.232;43.854;2022-11-11T05:42:20;101109.16;;;7.58;79.00
73453;BME280;61687;56.232;43.854;2022-11-11T05:45:05;101113.94;;;7.61;78.88
73453;BME280;61687;56.232;43.854;2022-11-11T05:47:50;101109.81;;;7.55;79.06
73453;BME280;61687;56.232;43.854;2022-11-11T05:50:34;101118.78;;;7.47;79.47
73453;BME280;61687;56.232;43.854;2022-11-11T05:53:20;101111.75;;;7.45;79.56
73453;BME280;61687;56.232;43.854;2022-11-11T05:56:07;101110.31;;;7.48;79.78
73453;BME280;61687;56.232;43.854;2022-11-11T05:58:51;101116.72;;;7.43;79.56
73453;BME280;61687;56.232;43.854;2022-11-11T06:01:36;101108.69;;;7.47;79.59
73453;BME280;61687;56.232;43.854;2022-11-11T06:04:21;101116.09;;;7.38;79.79
73453;BME280;61687;56.232;43.854;2022-11-11T06:07:05;101116.09;;;7.38;79.87
73453;BME280;61687;56.232;43.854;2022-11-11T06:09:49;101128.13;;;7.37;79.97
73453;BME280;61687;56.232;43.854;2022-11-11T06:12:34;101121.22;;;7.39;79.93
73453;BME280;61687;56.232;43.854;2022-11-11T06:15:39;101114.81;;;7.44;79.80
73453;BME280;61687;56.232;43.854;2022-11-11T06:18:24;101115.88;;;7.52;79.48
73453;BME280;61687;56.232;43.854;2022-11-11T06:21:08;101112.03;;;7.53;79.23
73453;BME280;61687;56.232;43.854;2022-11-11T06:23:53;101118.94;;;7.50;79.01
73453;BME280;61687;56.232;43.854;2022-11-11T06:26:37;101116.06;;;7.47;79.11
73453;BME280;61687;56.232;43.854;2022-11-11T06:29:21;101123.13;;;7.48;79.15
73453;BME280;61687;56.232;43.854;2022-11-11T06:32:06;101113.16;;;7.52;78.68
73453;BME280;61687;56.232;43.854;2022-11-11T06:34:50;101104.19;;;7.51;78.84
73453;BME280;61687;56.232;43.854;2022-11-11T06:37:35;101105.13;;;7.55;78.82
73453;BME280;61687;56.232;43.854;2022-11-11T06:40:19;101118.44;;;7.57;78.37
73453;BME280;61687;56.232;43.854;2022-11-11T06:43:04;101120.41;;;7.48;78.49
73453;BME280;61687;56.232;43.854;2022-11-11T06:45:52;101120.09;;;7.40;78.91
73453;BME280;61687;56.232;43.854;2022-11-11T06:48:37;101116.91;;;7.38;78.95
73453;BME280;61687;56.232;43.854;2022-11-11T06:51:25;101118.19;;;7.32;79.32
73453;BME280;61687;56.232;43.854;2022-11-11T06:54:09;101125.75;;;7.35;79.23
73453;BME280;61687;56.232;43.854;2022-11-11T06:56:53;101116.75;;;7.35;79.38
73453;BME280;61687;56.232;43.854;2022-11-11T06:59:38;101130.38;;;7.35;79.46
73453;BME280;61687;56.232;43.854;2022-11-11T07:02:22;101116.75;;;7.35;79.51
73453;BME280;61687;56.232;43.854;2022-11-11T07:05:07;101122.19;;;7.35;79.50
73453;BME280;61687;56.232;43.854;2022-11-11T07:07:51;101124.94;;;7.26;79.74
73453;BME280;61687;56.232;43.854;2022-11-11T07:10:37;101133.47;;;7.24;80.05
73453;BME280;61687;56.232;43.854;2022-11-11T07:13:22;101134.25;;;7.25;80.06
73453;BME280;61687;56.232;43.854;2022-11-11T07:16:06;101131.69;;;7.20;80.16
73453;BME280;61687;56.232;43.854;2022-11-11T07:18:51;101132.84;;;7.19;80.65
73453;BME280;61687;56.232;43.854;2022-11-11T07:21:35;101123.53;;;7.20;80.48
73453;BME280;61687;56.232;43.854;2022-11-11T07:24:19;101121.59;;;7.20;80.68
73453;BME280;61687;56.232;43.854;2022-11-11T07:27:04;101127.38;;;7.19;80.85
73453;BME280;61687;56.232;43.854;2022-11-11T07:29:48;101124.00;;;7.13;81.01
73453;BME280;61687;56.232;43.854;2022-11-11T07:32:33;101128.19;;;7.10;81.03
73453;BME280;61687;56.232;43.854;2022-11-11T07:35:18;101124.84;;;7.05;81.53
73453;BME280;61687;56.232;43.854;2022-11-11T07:38:03;101123.25;;;7.04;81.52
73453;BME280;61687;56.232;43.854;2022-11-11T07:40:47;101129.34;;;7.00;81.56
73453;BME280;61687;56.232;43.854;2022-11-11T07:43:31;101126.94;;;6.99;81.70
73453;BME280;61687;56.232;43.854;2022-11-11T07:46:16;101123.88;;;7.00;81.68
73453;BME280;61687;56.232;43.854;2022-11-11T07:49:00;101124.19;;;6.99;81.59
73453;BME280;61687;56.232;43.854;2022-11-11T07:51:44;101119.69;;;7.03;81.45
73453;BME280;61687;56.232;43.854;2022-11-11T07:54:29;101122.44;;;7.03;81.58
73453;BME280;61687;56.232;43.854;2022-11-11T07:57:13;101119.06;;;7.06;81.50
73453;BME280;61687;56.232;43.854;2022-11-11T07:59:57;101124.97;;;7.08;81.33
73453;BME280;61687;56.232;43.854;2022-11-11T08:02:46;101114.72;;;7.05;81.40
73453;BME280;61687;56.232;43.854;2022-11-11T08:05:30;101117.63;;;7.09;81.51
73453;BME280;61687;56.232;43.854;2022-11-11T08:08:15;101121.28;;;7.13;81.12
73453;BME280;61687;56.232;43.854;2022-11-11T08:11:00;101118.56;;;7.13;81.02
73453;BME280;61687;56.232;43.854;2022-11-11T08:13:44;101113.94;;;7.13;81.19
73453;BME280;61687;56.232;43.854;2022-11-11T08:16:28;101105.75;;;7.13;81.21
73453;BME280;61687;56.232;43.854;2022-11-11T08:19:13;101113.13;;;7.13;80.96
73453;BME280;61687;56.232;43.854;2022-11-11T08:21:57;101113.13;;;7.13;81.12
73453;BME280;61687;56.232;43.854;2022-11-11T08:24:41;101116.19;;;7.11;81.22
73453;BME280;61687;56.232;43.854;2022-11-11T08:27:26;101116.00;;;7.16;81.16
73453;BME280;61687;56.232;43.854;2022-11-11T08:30:10;101106.69;;;7.18;81.14
73453;BME280;61687;56.232;43.854;2022-11-11T08:32:57;101095.63;;;7.14;81.08
73453;BME280;61687;56.232;43.854;2022-11-11T08:35:42;101103.34;;;7.12;81.18
73453;BME280;61687;56.232;43.854;2022-11-11T08:38:26;101104.94;;;7.13;81.06
73453;BME280;61687;56.232;43.854;2022-11-11T08:41:11;101098.03;;;7.15;81.08
73453;BME280;61687;56.232;43.854;2022-11-11T08:43:55;101105.09;;;7.16;81.12
73453;BME280;61687;56.232;43.854;2022-11-11T08:46:39;101100.59;;;7.21;81.19
73453;BME280;61687;56.232;43.854;2022-11-11T08:49:24;101105.72;;;7.22;80.98
73453;BME280;61687;56.232;43.854;2022-11-11T08:52:08;101103.97;;;7.18;81.03
73453;BME280;61687;56.232;43.854;2022-11-11T08:54:52;101107.47;;;7.18;81.15
73453;BME280;61687;56.232;43.854;2022-11-11T08:57:38;101103.97;;;7.18;81.19
73453;BME280;61687;56.232;43.854;2022-11-11T09:00:22;101094.84;;;7.13;81.24
73453;BME280;61687;56.232;43.854;2022-11-11T09:03:10;101091.66;;;7.11;81.06
73453;BME280;61687;56.232;43.854;2022-11-11T09:05:56;101083.59;;;7.15;81.15
73453;BME280;61687;56.232;43.854;2022-11-11T09:08:43;101086.31;;;7.15;80.96
73453;BME280;61687;56.232;43.854;2022-11-11T09:11:27;101091.00;;;7.14;80.93
73453;BME280;61687;56.232;43.854;2022-11-11T09:14:19;101080.22;;;7.18;80.84
73453;BME280;61687;56.232;43.854;2022-11-11T09:17:05;101082.81;;;7.14;80.69
73453;BME280;61687;56.232;43.854;2022-11-11T09:19:49;101080.09;;;7.14;80.69
73453;BME280;61687;56.232;43.854;2022-11-11T09:22:41;101081.69;;;7.15;80.85
73453;BME280;61687;56.232;43.854;2022-11-11T09:25:25;101085.53;;;7.14;80.84
73453;BME280;61687;56.232;43.854;2022-11-11T09:28:09;101076.88;;;7.12;81.05
73453;BME280;61687;56.232;43.854;2022-11-11T09:30:54;101082.84;;;7.06;80.88
73453;BME280;61687;56.232;43.854;2022-11-11T09:33:38;101076.56;;;7.05;80.90
73453;BME280;61687;56.232;43.854;2022-11-11T09:36:22;101086.69;;;7.05;80.82
73453;BME280;61687;56.232;43.854;2022-11-11T09:39:07;101082.03;;;7.05;80.91
73453;BME280;61687;56.232;43.854;2022-11-11T09:42:10;101088.56;;;7.13;80.95
73453;BME280;61687;56.232;43.854;2022-11-11T09:45:26;101079.28;;;7.14;80.56
73453;BME280;61687;56.232;43.854;2022-11-11T09:51:22;101078.50;;;7.13;80.79
73453;BME280;61687;56.232;43.854;2022-11-11T09:54:15;101080.09;;;7.14;80.32
73453;BME280;61687;56.232;43.854;2022-11-11T09:57:03;101083.94;;;7.13;80.44
73453;BME280;61687;56.232;43.854;2022-11-11T09:59:51;101081.38;;;7.08;80.27
73453;BME280;61687;56.232;43.854;2022-11-11T10:05:58;101073.06;;;6.96;80.66
73453;BME280;61687;56.232;43.854;2022-11-11T10:14:22;101074.50;;;7.02;80.16
73453;BME280;61687;56.232;43.854;2022-11-11T10:20:22;101077.69;;;7.04;80.25
73453;BME280;61687;56.232;43.854;2022-11-11T10:23:17;101083.03;;;6.92;80.42
73453;BME280;61687;56.232;43.854;2022-11-11T10:26:31;101071.00;;;6.84;80.47
73453;BME280;61687;56.232;43.854;2022-11-11T10:29:21;101069.41;;;6.83;80.82
73453;BME280;61687;56.232;43.854;2022-11-11T10:32:27;101077.25;;;6.84;80.66
73453;BME280;61687;56.232;43.854;2022-11-11T10:35:25;101074.38;;;6.81;80.73
73453;BME280;61687;56.232;43.854;2022-11-11T10:40:57;101080.78;;;6.85;80.71
73453;BME280;61687;56.232;43.854;2022-11-11T10:43:45;101068.44;;;6.87;80.40
73453;BME280;61687;56.232;43.854;2022-11-11T10:46:38;101084.63;;;6.93;80.27
73453;BME280;61687;56.232;43.854;2022-11-11T10:49:30;101074.19;;;6.95;80.07
73453;BME280;61687;56.232;43.854;2022-11-11T10:52:21;101079.47;;;7.00;79.85
73453;BME280;61687;56.232;43.854;2022-11-11T10:55:14;101073.06;;;6.96;79.75
73453;BME280;61687;56.232;43.854;2022-11-11T11:01:13;101080.13;;;6.97;79.85
73453;BME280;61687;56.232;43.854;2022-11-11T11:04:25;101073.72;;;6.93;80.05
73453;BME280;61687;56.232;43.854;2022-11-11T11:07:09;101082.03;;;6.87;80.07
73453;BME280;61687;56.232;43.854;2022-11-11T11:10:00;101071.16;;;6.87;80.21
73453;BME280;61687;56.232;43.854;2022-11-11T11:15:38;101084.78;;;6.87;80.14
73453;BME280;61687;56.232;43.854;2022-11-11T11:18:24;101084.47;;;6.89;80.19
73453;BME280;61687;56.232;43.854;2022-11-11T11:21:09;101083.16;;;6.86;79.74
73453;BME280;61687;56.232;43.854;2022-11-11T11:23:54;101075.34;;;6.76;80.12
73453;BME280;61687;56.232;43.854;2022-11-11T11:26:47;101087.38;;;6.75;80.12
73453;BME280;61687;56.232;43.854;2022-11-11T11:29:43;101085.94;;;6.69;80.04
73453;BME280;61687;56.232;43.854;2022-11-11T11:32:31;101090.56;;;6.68;80.29
73453;BME280;61687;56.232;43.854;2022-11-11T11:35:30;101100.03;;;6.71;80.34
73453;BME280;61687;56.232;43.854;2022-11-11T11:38:15;101099.06;;;6.67;80.41
73453;BME280;61687;56.232;43.854;2022-11-11T11:40:59;101097.31;;;6.71;80.07
73453;BME280;61687;56.232;43.854;2022-11-11T11:43:44;101089.63;;;6.73;80.02
73453;BME280;61687;56.232;43.854;2022-11-11T11:46:38;101099.69;;;6.72;79.97
73453;BME280;61687;56.232;43.854;2022-11-11T11:52:24;101097.78;;;6.82;79.83
73453;BME280;61687;56.232;43.854;2022-11-11T11:55:18;101107.22;;;6.76;79.68
73453;BME280;61687;56.232;43.854;2022-11-11T12:10:56;101093.28;;;6.59;80.51
73453;BME280;61687;56.232;43.854;2022-11-11T12:26:36;101099.38;;;6.56;80.86
73453;BME280;61687;56.232;43.854;2022-11-11T12:29:51;101094.41;;;6.50;80.73
73453;BME280;61687;56.232;43.854;2022-11-11T12:33:00;101098.56;;;6.56;80.86
73453;BME280;61687;56.232;43.854;2022-11-11T12:44:47;101102.13;;;6.56;81.33
73453;BME280;61687;56.232;43.854;2022-11-11T12:47:43;101107.72;;;6.60;81.27
73453;BME280;61687;56.232;43.854;2022-11-11T12:56:48;101101.16;;;6.52;81.66
73453;BME280;61687;56.232;43.854;2022-11-11T13:02:53;101092.81;;;6.49;81.82
73453;BME280;61687;56.232;43.854;2022-11-11T13:05:47;101083.34;;;6.46;81.94
73453;BME280;61687;56.232;43.854;2022-11-11T13:08:43;101076.47;;;6.49;82.08
73453;BME280;61687;56.232;43.854;2022-11-11T13:12:33;101083.69;;;6.53;81.96
73453;BME280;61687;56.232;43.854;2022-11-11T13:15:14;101075.19;;;6.55;81.81
73453;BME280;61687;56.232;43.854;2022-11-11T13:18:00;101082.56;;;6.63;81.70
73453;BME280;61687;56.232;43.854;2022-11-11T13:21:00;101071.50;;;6.59;81.66
73453;BME280;61687;56.232;43.854;2022-11-11T13:23:46;101074.56;;;6.58;81.85
73453;BME280;61687;56.232;43.854;2022-11-11T13:26:36;101076.00;;;6.55;82.05
73453;BME280;61687;56.232;43.854;2022-11-11T13:32:39;101068.78;;;6.59;82.02
73453;BME280;61687;56.232;43.854;2022-11-11T13:35:33;101062.22;;;6.61;82.05
73453;BME280;61687;56.232;43.854;2022-11-11T13:38:32;101066.38;;;6.67;81.94
73453;BME280;61687;56.232;43.854;2022-11-11T13:41:26;101059.66;;;6.64;81.99
73453;BME280;61687;56.232;43.854;2022-11-11T13:44:20;101055.47;;;6.67;81.96
73453;BME280;61687;56.232;43.854;2022-11-11T13:47:11;101049.25;;;6.66;81.94
73453;BME280;61687;56.232;43.854;2022-11-11T13:50:02;101053.38;;;6.72;81.93
73453;BME280;61687;56.232;43.854;2022-11-11T13:53:05;101058.19;;;6.76;82.11
73453;BME280;61687;56.232;43.854;2022-11-11T13:55:53;101048.75;;;6.64;82.14
73453;BME280;61687;56.232;43.854;2022-11-11T13:58:46;101054.53;;;6.63;82.15
73453;BME280;61687;56.232;43.854;2022-11-11T14:01:33;101047.66;;;6.56;82.58
73453;BME280;61687;56.232;43.854;2022-11-11T14:04:19;101053.88;;;6.57;82.77
73453;BME280;61687;56.232;43.854;2022-11-11T14:07:06;101045.22;;;6.55;82.69
73453;BME280;61687;56.232;43.854;2022-11-11T14:10:00;101042.69;;;6.58;82.78
73453;BME280;61687;56.232;43.854;2022-11-11T14:12:53;101038.81;;;6.59;82.90
73453;BME280;61687;56.232;43.854;2022-11-11T14:15:42;101036.09;;;6.68;82.65
73453;BME280;61687;56.232;43.854;2022-11-11T14:18:36;101045.56;;;6.71;82.56
73453;BME280;61687;56.232;43.854;2022-11-11T14:21:42;101033.06;;;6.70;82.74
73453;BME280;61687;56.232;43.854;2022-11-11T14:24:41;101030.47;;;6.73;82.68
73453;BME280;61687;56.232;43.854;2022-11-11T14:27:30;101025.50;;;6.67;82.89
73453;BME280;61687;56.232;43.854;2022-11-11T14:30:39;101030.97;;;6.67;82.94
73453;BME280;61687;56.232;43.854;2022-11-11T14:36:44;101031.59;;;6.64;83.33
73453;BME280;61687;56.232;43.854;2022-11-11T14:48:48;101029.53;;;6.52;84.26
73453;BME280;61687;56.232;43.854;2022-11-11T14:51:37;101027.63;;;6.52;84.30
73453;BME280;61687;56.232;43.854;2022-11-11T15:00:23;101017.84;;;6.60;83.88
73453;BME280;61687;56.232;43.854;2022-11-11T15:03:12;101026.31;;;6.67;83.95
73453;BME280;61687;56.232;43.854;2022-11-11T15:06:12;101024.56;;;6.63;84.13
73453;BME280;61687;56.232;43.854;2022-11-11T15:09:16;101023.28;;;6.69;83.94
73453;BME280;61687;56.232;43.854;2022-11-11T15:12:19;101032.25;;;6.69;83.96
73453;BME280;61687;56.232;43.854;2022-11-11T15:15:14;101040.09;;;6.71;83.94
73453;BME280;61687;56.232;43.854;2022-11-11T15:28:47;101035.13;;;6.73;84.09
73453;BME280;61687;56.232;43.854;2022-11-11T15:31:59;101030.81;;;6.72;84.08
73453;BME280;61687;56.232;43.854;2022-11-11T15:37:35;101036.09;;;6.77;84.08
73453;BME280;61687;56.232;43.854;2022-11-11T15:40:21;101035.59;;;6.75;84.08
73453;BME280;61687;56.232;43.854;2022-11-11T15:43:12;101036.41;;;6.76;84.06
73453;BME280;61687;56.232;43.854;2022-11-11T15:46:02;101047.16;;;6.81;84.21
73453;BME280;61687;56.232;43.854;2022-11-11T15:48:47;101025.00;;;6.82;84.19
73453;BME280;61687;56.232;43.854;2022-11-11T15:51:31;101026.44;;;6.88;84.00
73453;BME280;61687;56.232;43.854;2022-11-11T15:54:19;101030.59;;;6.95;83.79
73453;BME280;61687;56.232;43.854;2022-11-11T15:57:32;101025.63;;;6.97;83.67
73453;BME280;61687;56.232;43.854;2022-11-11T16:03:25;101019.69;;;6.95;83.67
73453;BME280;61687;56.232;43.854;2022-11-11T16:06:14;101008.63;;;7.00;83.63
73453;BME280;61687;56.232;43.854;2022-11-11T16:08:59;101017.44;;;7.06;83.46
73453;BME280;61687;56.232;43.854;2022-11-11T16:11:46;101010.84;;;7.07;83.53
73453;BME280;61687;56.232;43.854;2022-11-11T16:14:35;101012.09;;;7.09;83.35
73453;BME280;61687;56.232;43.854;2022-11-11T16:17:28;101011.47;;;7.12;83.20
73453;BME280;61687;56.232;43.854;2022-11-11T16:20:14;101007.94;;;7.12;83.19
73453;BME280;61687;56.232;43.854;2022-11-11T16:23:05;101010.66;;;7.12;83.22
73453;BME280;61687;56.232;43.854;2022-11-11T16:25:51;101004.28;;;7.08;83.42
73453;BME280;61687;56.232;43.854;2022-11-11T16:28:52;101004.91;;;7.13;83.51
73453;BME280;61687;56.232;43.854;2022-11-11T16:31:39;101004.91;;;7.13;83.33
73453;BME280;61687;56.232;43.854;2022-11-11T16:37:11;100993.66;;;7.15;83.29
73453;BME280;61687;56.232;43.854;2022-11-11T16:43:23;100997.28;;;7.28;83.08
73453;BME280;61687;56.232;43.854;2022-11-11T16:46:13;100989.56;;;7.30;82.77